createdAt,value
2018-11-06T00:01:45.103Z,44.43
2018-11-06T00:04:13.662Z,40.47
2018-11-06T00:06:42.078Z,40.87
2018-11-06T00:09:10.475Z,42.50
2018-11-06T00:11:38.789Z,39.07
2018-11-06T00:14:07.231Z,46.27
2018-11-06T00:16:35.576Z,47.50
2018-11-06T00:19:03.956Z,45.73
2018-11-06T00:21:32.279Z,42.60
2018-11-06T00:24:00.597Z,45.13
2018-11-06T00:26:28.977Z,41.70
2018-11-06T00:28:57.319Z,43.03
2018-11-06T00:31:25.708Z,46.70
2018-11-06T00:33:54.064Z,37.93
2018-11-06T00:36:22.463Z,43.30
2018-11-06T00:38:50.941Z,42.73
2018-11-06T00:41:19.516Z,45.67
2018-11-06T00:43:47.882Z,42.60
2018-11-06T00:46:16.216Z,37.70
2018-11-06T00:48:44.515Z,46.37
2018-11-06T00:51:12.890Z,43.60
2018-11-06T00:53:41.233Z,44.97
2018-11-06T00:56:09.822Z,39.30
2018-11-06T00:58:38.383Z,38.73
2018-11-06T01:01:06.824Z,43.07
2018-11-06T01:03:40.685Z,42.03
2018-11-06T01:06:09.082Z,44.23
2018-11-06T01:08:37.426Z,47.20
2018-11-06T01:11:05.817Z,46.43
2018-11-06T01:13:34.156Z,45.43
2018-11-06T01:16:02.577Z,48.53
2018-11-06T01:18:31.017Z,45.57
2018-11-06T01:20:59.762Z,52.40
2018-11-06T01:23:28.086Z,49.43
2018-11-06T01:25:56.457Z,51.27
2018-11-06T01:28:24.810Z,51.77
2018-11-06T01:30:53.250Z,197.80
2018-11-06T01:33:21.649Z,119.80
2018-11-06T01:35:50.006Z,102.43
2018-11-06T01:38:18.326Z,49.10
2018-11-06T01:40:46.688Z,50.53
2018-11-06T01:43:15.050Z,203.67
2018-11-06T01:45:43.416Z,163.43
2018-11-06T01:48:11.774Z,212.90
2018-11-06T01:50:40.136Z,147.07
2018-11-06T01:53:08.471Z,136.63
2018-11-06T01:55:36.884Z,115.20
2018-11-06T01:58:05.681Z,105.87
2018-11-06T02:00:34.199Z,112.80
2018-11-06T02:03:02.635Z,145.37
2018-11-06T02:05:30.992Z,120.30
2018-11-06T02:07:59.402Z,307.00
2018-11-06T02:10:27.879Z,267.63
2018-11-06T02:12:56.297Z,626.73
2018-11-06T02:15:24.709Z,476.67
2018-11-06T02:17:53.159Z,155.83
2018-11-06T02:20:21.495Z,72.87
2018-11-06T02:22:49.949Z,165.47
2018-11-06T02:25:18.336Z,70.90
2018-11-06T02:27:46.768Z,199.97
2018-11-06T02:30:16.415Z,65.03
2018-11-06T02:32:45.460Z,48.77
2018-11-06T02:35:13.920Z,97.20
2018-11-06T02:37:42.259Z,141.33
2018-11-06T02:40:12.211Z,85.93
2018-11-06T02:42:41.024Z,78.93
2018-11-06T02:45:10.198Z,47.63
2018-11-06T02:47:38.807Z,87.00
2018-11-06T02:50:07.779Z,43.07
2018-11-06T02:52:36.153Z,46.93
2018-11-06T02:55:05.270Z,51.80
2018-11-06T02:57:33.671Z,45.47
2018-11-06T03:00:02.009Z,47.60
2018-11-06T03:02:30.506Z,46.30
2018-11-06T03:04:58.876Z,45.07
2018-11-06T03:07:27.266Z,46.40
2018-11-06T03:09:55.579Z,47.13
2018-11-06T03:12:23.882Z,54.17
2018-11-06T03:14:52.579Z,42.37
2018-11-06T03:17:21.034Z,42.90
2018-11-06T03:19:49.467Z,43.20
2018-11-06T03:22:17.841Z,39.60
2018-11-06T03:24:46.180Z,57.73
2018-11-06T03:27:14.516Z,56.77
2018-11-06T03:29:42.882Z,60.80
2018-11-06T03:32:11.244Z,38.97
2018-11-06T03:34:39.588Z,57.60
2018-11-06T03:37:08.112Z,105.53
2018-11-06T03:39:36.628Z,104.07
2018-11-06T03:42:05.163Z,130.63
2018-11-06T03:44:33.499Z,84.97
2018-11-06T03:47:02.018Z,124.17
2018-11-06T03:49:30.356Z,42.93
2018-11-06T03:51:58.737Z,46.47
2018-11-06T03:54:27.094Z,48.03
2018-11-06T03:56:55.414Z,33.60
2018-11-06T03:59:23.765Z,39.00
2018-11-06T04:01:52.080Z,37.57
2018-11-06T04:04:20.415Z,37.40
2018-11-06T04:06:48.776Z,36.87
2018-11-06T04:11:58.323Z,33.43
2018-11-06T04:14:26.708Z,38.87
2018-11-06T04:16:55.027Z,35.70
2018-11-06T04:19:23.544Z,34.93
2018-11-06T04:21:51.938Z,39.10
2018-11-06T04:24:20.319Z,35.60
2018-11-06T04:26:48.697Z,43.93
2018-11-06T04:29:17.026Z,40.53
2018-11-06T04:31:45.372Z,43.87
2018-11-06T04:34:13.854Z,38.30
2018-11-06T04:36:42.143Z,44.33
2018-11-06T04:39:11.235Z,44.67
2018-11-06T04:41:39.515Z,46.67
2018-11-06T04:44:08.185Z,52.47
2018-11-06T04:46:36.553Z,49.23
2018-11-06T04:49:05.697Z,41.10
2018-11-06T04:51:34.083Z,44.70
2018-11-06T04:54:03.136Z,46.97
2018-11-06T04:56:32.034Z,43.80
2018-11-06T04:59:00.412Z,50.60
2018-11-06T05:01:28.879Z,41.43
2018-11-06T05:03:57.180Z,54.63
2018-11-06T05:06:25.511Z,67.63
2018-11-06T05:08:53.830Z,49.77
2018-11-06T05:11:22.294Z,56.03
2018-11-06T05:13:50.796Z,52.47
2018-11-06T05:16:19.166Z,40.00
2018-11-06T05:18:47.463Z,52.20
2018-11-06T05:21:15.812Z,61.00
2018-11-06T05:23:44.148Z,154.50
2018-11-06T05:26:12.544Z,126.97
2018-11-06T05:28:40.840Z,116.73
2018-11-06T05:31:09.204Z,67.70
2018-11-06T05:33:37.493Z,87.17
2018-11-06T05:36:05.806Z,81.57
2018-11-06T05:38:34.149Z,164.63
2018-11-06T05:41:03.755Z,203.47
2018-11-06T05:43:32.104Z,96.03
2018-11-06T05:46:00.559Z,94.23
2018-11-06T05:48:28.852Z,72.30
2018-11-06T05:50:57.183Z,62.13
2018-11-06T05:53:25.504Z,69.67
2018-11-06T05:55:53.879Z,65.47
2018-11-06T05:58:22.263Z,61.13
2018-11-06T06:00:50.612Z,101.30
2018-11-06T06:03:19.117Z,75.73
2018-11-06T06:05:47.439Z,67.33
2018-11-06T06:08:15.744Z,66.30
2018-11-06T06:10:44.097Z,61.07
2018-11-06T06:13:12.369Z,55.97
2018-11-06T06:15:40.815Z,58.73
2018-11-06T06:18:10.078Z,63.67
2018-11-06T06:20:38.721Z,61.27
2018-11-06T06:23:07.076Z,61.00
2018-11-06T06:25:35.465Z,55.00
2018-11-06T06:28:03.849Z,55.93
2018-11-06T06:30:32.400Z,51.10
2018-11-06T06:33:00.849Z,58.30
2018-11-06T06:35:29.233Z,48.50
2018-11-06T06:37:57.631Z,56.37
2018-11-06T06:40:26.117Z,51.37
2018-11-06T06:42:54.609Z,56.83
2018-11-06T06:45:22.952Z,54.63
2018-11-06T06:47:51.393Z,57.43
2018-11-06T06:50:20.311Z,62.33
2018-11-06T06:52:49.130Z,61.57
2018-11-06T06:55:17.952Z,52.37
2018-11-06T06:57:47.286Z,67.90
2018-11-06T07:00:20.174Z,63.90
2018-11-06T07:02:48.592Z,62.37
2018-11-06T07:05:18.363Z,65.83
2018-11-06T07:07:46.808Z,61.27
2018-11-06T07:10:16.555Z,56.97
2018-11-06T07:12:45.709Z,60.87
2018-11-06T07:15:15.181Z,60.03
2018-11-06T07:17:44.436Z,53.13
2018-11-06T07:20:14.192Z,49.27
2018-11-06T07:22:42.563Z,54.40
2018-11-06T07:25:11.635Z,55.37
2018-11-06T07:27:41.009Z,55.27
2018-11-06T07:30:20.751Z,49.90
2018-11-06T07:32:49.416Z,46.87
2018-11-06T07:35:18.716Z,53.10
2018-11-06T07:37:47.147Z,52.67
2018-11-06T07:40:16.759Z,53.73
2018-11-06T07:42:45.195Z,51.43
2018-11-06T07:45:15.050Z,46.70
2018-11-06T07:47:43.635Z,41.53
2018-11-06T07:50:12.670Z,45.13
2018-11-06T07:52:41.090Z,41.00
2018-11-06T07:55:13.216Z,38.53
2018-11-06T07:57:41.639Z,38.47
2018-11-06T08:00:15.521Z,37.07
2018-11-06T08:02:44.816Z,38.70
2018-11-06T08:05:13.239Z,40.37
2018-11-06T08:07:41.735Z,40.27
2018-11-06T08:10:10.842Z,37.60
2018-11-06T08:12:40.344Z,38.03
2018-11-06T08:15:09.384Z,34.90
2018-11-06T08:17:37.924Z,35.97
2018-11-06T08:20:07.028Z,36.13
2018-11-06T08:22:35.466Z,36.13
2018-11-06T08:25:03.848Z,36.43
2018-11-06T08:27:32.211Z,33.37
2018-11-06T08:30:00.592Z,35.50
2018-11-06T08:32:29.431Z,35.00
2018-11-06T08:34:57.527Z,37.57
2018-11-06T08:37:26.049Z,37.13
2018-11-06T08:39:54.376Z,34.90
2018-11-06T08:42:22.799Z,39.43
2018-11-06T08:44:51.090Z,36.13
2018-11-06T08:47:19.445Z,35.67
2018-11-06T08:49:47.772Z,31.80
2018-11-06T08:52:16.166Z,36.13
2018-11-06T08:54:44.707Z,32.27
2018-11-06T08:57:12.977Z,38.07
2018-11-06T08:59:41.296Z,37.00
2018-11-06T09:02:09.970Z,35.27
2018-11-06T09:04:38.344Z,35.10
2018-11-06T09:07:06.730Z,33.00
2018-11-06T09:09:35.102Z,37.43
2018-11-06T09:12:03.487Z,37.03
2018-11-06T09:14:31.944Z,35.07
2018-11-06T09:17:00.378Z,33.20
2018-11-06T09:19:28.822Z,35.03
2018-11-06T09:21:57.807Z,40.47
2018-11-06T09:24:26.169Z,36.53
2018-11-06T09:26:54.735Z,31.90
2018-11-06T09:29:23.096Z,33.93
2018-11-06T09:31:51.452Z,33.37
2018-11-06T09:34:19.980Z,35.40
2018-11-06T09:36:48.366Z,34.53
2018-11-06T09:39:16.791Z,33.33
2018-11-06T09:41:45.135Z,36.67
2018-11-06T09:44:13.523Z,40.57
2018-11-06T09:46:41.953Z,36.07
2018-11-06T09:49:10.299Z,36.37
2018-11-06T09:51:38.666Z,34.43
2018-11-06T09:54:07.026Z,35.70
2018-11-06T09:56:35.421Z,38.73
2018-11-06T09:59:03.831Z,36.80
2018-11-06T10:01:32.214Z,41.83
2018-11-06T10:04:00.555Z,41.53
2018-11-06T10:06:28.987Z,44.73
2018-11-06T10:08:57.274Z,41.10
2018-11-06T10:11:25.728Z,37.57
2018-11-06T10:13:54.022Z,44.47
2018-11-06T10:16:22.594Z,42.17
2018-11-06T10:18:50.935Z,42.70
2018-11-06T10:21:19.361Z,43.03
2018-11-06T10:23:47.669Z,43.40
2018-11-06T10:26:16.021Z,39.27
2018-11-06T10:28:44.401Z,34.57
2018-11-06T10:31:12.709Z,33.33
2018-11-06T10:33:41.047Z,36.17
2018-11-06T10:36:09.400Z,28.43
2018-11-06T10:38:37.743Z,29.20
2018-11-06T10:41:06.072Z,31.33
2018-11-06T10:43:34.459Z,33.10
2018-11-06T10:46:02.806Z,29.90
2018-11-06T10:48:31.136Z,29.30
2018-11-06T10:50:59.496Z,27.70
2018-11-06T10:53:28.820Z,30.33
2018-11-06T10:55:57.164Z,29.07
2018-11-06T10:58:25.581Z,30.40
2018-11-06T11:00:59.249Z,28.03
2018-11-06T11:03:32.794Z,26.50
2018-11-06T11:06:01.663Z,27.37
2018-11-06T11:08:30.058Z,30.73
2018-11-06T11:10:58.704Z,27.40
2018-11-06T11:13:27.147Z,28.20
2018-11-06T11:15:55.667Z,23.20
2018-11-06T11:18:24.059Z,34.77
2018-11-06T11:20:52.461Z,27.47
2018-11-06T11:23:20.803Z,27.40
2018-11-06T11:25:49.185Z,26.40
2018-11-06T11:28:17.509Z,25.93
2018-11-06T11:30:45.893Z,29.93
2018-11-06T11:33:14.330Z,25.13
2018-11-06T11:35:42.672Z,26.17
2018-11-06T11:38:11.040Z,23.80
2018-11-06T11:40:39.432Z,25.13
2018-11-06T11:43:07.758Z,21.60
2018-11-06T11:45:36.166Z,26.13
2018-11-06T11:48:04.583Z,19.57
2018-11-06T11:50:32.915Z,25.17
2018-11-06T11:53:01.288Z,23.03
2018-11-06T11:55:29.683Z,22.70
2018-11-06T11:57:58.079Z,21.83
2018-11-06T12:00:28.551Z,21.63
2018-11-06T12:02:57.543Z,22.83
2018-11-06T12:05:25.866Z,25.87
2018-11-06T12:07:54.261Z,24.10
2018-11-06T12:10:22.707Z,22.20
2018-11-06T12:12:51.040Z,21.80
2018-11-06T12:15:19.387Z,24.37
2018-11-06T12:17:48.009Z,24.90
2018-11-06T12:20:16.800Z,25.53
2018-11-06T12:22:45.183Z,20.37
2018-11-06T12:25:14.084Z,20.63
2018-11-06T12:27:42.232Z,23.03
2018-11-06T12:30:12.802Z,21.00
2018-11-06T12:32:41.860Z,20.60
2018-11-06T12:35:11.164Z,21.47
2018-11-06T12:37:39.744Z,21.93
2018-11-06T12:40:09.698Z,20.17
2018-11-06T12:42:38.856Z,20.43
2018-11-06T12:45:09.016Z,21.87
2018-11-06T12:47:37.357Z,21.87
2018-11-06T12:50:06.816Z,19.80
2018-11-06T12:52:35.084Z,21.90
2018-11-06T12:55:03.627Z,22.40
2018-11-06T12:57:31.967Z,19.17
2018-11-06T13:00:00.425Z,22.10
2018-11-06T13:02:28.740Z,17.00
2018-11-06T13:04:57.076Z,15.83
2018-11-06T13:07:25.360Z,17.63
2018-11-06T13:09:53.720Z,17.73
2018-11-06T13:12:22.016Z,16.80
2018-11-06T13:14:50.825Z,24.03
2018-11-06T13:17:19.158Z,16.87
2018-11-06T13:19:47.487Z,37.57
2018-11-06T13:22:15.887Z,47.90
2018-11-06T13:24:44.219Z,24.87
2018-11-06T13:27:12.600Z,20.43
2018-11-06T13:29:41.181Z,15.80
2018-11-06T13:32:09.524Z,17.13
2018-11-06T13:37:12.552Z,22.40
2018-11-06T13:39:40.849Z,19.83
2018-11-06T13:42:09.249Z,20.50
2018-11-06T13:44:37.779Z,21.23
2018-11-06T13:47:05.950Z,21.57
2018-11-06T13:49:34.276Z,16.67
2018-11-06T13:52:02.632Z,17.63
2018-11-06T13:54:30.945Z,14.63
2018-11-06T13:56:59.268Z,20.43
2018-11-06T13:59:27.610Z,19.00
2018-11-06T14:01:55.904Z,22.63
2018-11-06T14:04:24.352Z,20.27
2018-11-06T14:06:52.571Z,21.60
2018-11-06T14:09:20.925Z,20.70
2018-11-06T14:11:49.235Z,18.93
2018-11-06T14:14:17.573Z,18.13
2018-11-06T14:16:46.011Z,17.00
2018-11-06T14:19:14.385Z,20.13
2018-11-06T14:21:42.730Z,20.93
2018-11-06T14:24:11.171Z,18.50
2018-11-06T14:26:39.488Z,21.57
2018-11-06T14:29:08.038Z,20.33
2018-11-06T14:31:36.454Z,19.60
2018-11-06T14:34:04.887Z,22.00
2018-11-06T14:36:33.292Z,21.87
2018-11-06T14:39:01.687Z,20.00
2018-11-06T14:41:30.074Z,22.43
2018-11-06T14:44:05.117Z,18.13
2018-11-06T14:46:33.580Z,26.00
2018-11-06T14:49:02.058Z,22.00
2018-11-06T14:51:30.315Z,25.10
2018-11-06T14:53:58.683Z,22.20
2018-11-06T14:56:27.130Z,23.80
2018-11-06T14:58:55.464Z,18.53
2018-11-06T15:01:23.799Z,19.77
2018-11-06T15:03:52.118Z,19.67
2018-11-06T15:06:20.544Z,19.00
2018-11-06T15:08:49.123Z,21.43
2018-11-06T15:11:17.488Z,19.30
2018-11-06T15:13:45.842Z,18.57
2018-11-06T15:16:14.203Z,18.17
2018-11-06T15:18:42.595Z,17.83
2018-11-06T15:21:10.904Z,18.73
2018-11-06T15:23:39.239Z,21.37
2018-11-06T15:26:07.625Z,19.17
2018-11-06T15:28:35.931Z,20.30
2018-11-06T15:31:04.288Z,16.30
2018-11-06T15:33:32.633Z,19.60
2018-11-06T15:36:01.182Z,18.30
2018-11-06T15:38:29.584Z,16.53
2018-11-06T15:40:58.012Z,16.30
2018-11-06T15:43:26.255Z,16.57
2018-11-06T15:45:54.613Z,19.70
2018-11-06T15:48:22.941Z,19.37
2018-11-06T15:50:51.287Z,17.50
2018-11-06T15:53:19.652Z,17.27
2018-11-06T15:55:47.991Z,21.97
2018-11-06T15:58:16.402Z,18.70
2018-11-06T16:00:44.796Z,19.03
2018-11-06T16:03:13.089Z,19.07
2018-11-06T16:05:41.475Z,20.03
2018-11-06T16:08:09.842Z,19.43
2018-11-06T16:10:38.204Z,19.67
2018-11-06T16:13:06.540Z,22.63
2018-11-06T16:15:34.922Z,25.90
2018-11-06T16:18:03.302Z,21.33
2018-11-06T16:20:31.664Z,19.83
2018-11-06T16:23:00.019Z,20.57
2018-11-06T16:25:28.412Z,17.13
2018-11-06T16:27:57.754Z,20.10
2018-11-06T16:30:26.071Z,18.93
2018-11-06T16:32:54.516Z,22.37
2018-11-06T16:35:23.535Z,22.27
2018-11-06T16:37:52.807Z,23.50
2018-11-06T16:40:21.140Z,17.83
2018-11-06T16:42:50.028Z,19.13
2018-11-06T16:45:19.728Z,22.97
2018-11-06T16:47:49.038Z,23.45
2018-11-06T16:50:18.210Z,22.10
2018-11-06T16:52:46.603Z,22.57
2018-11-06T16:55:15.590Z,20.40
2018-11-06T16:57:44.503Z,22.07
2018-11-06T17:00:16.409Z,20.33
2018-11-06T17:02:45.045Z,21.53
2018-11-06T17:05:14.522Z,18.40
2018-11-06T17:07:43.479Z,19.23
2018-11-06T17:10:13.036Z,25.00
2018-11-06T17:12:41.457Z,26.67
2018-11-06T17:15:12.772Z,25.87
2018-11-06T17:17:41.390Z,25.70
2018-11-06T17:20:10.924Z,22.13
2018-11-06T17:22:39.388Z,22.90
2018-11-06T17:25:09.520Z,19.67
2018-11-06T17:27:38.138Z,23.87
2018-11-06T17:30:07.471Z,22.17
2018-11-06T17:32:36.504Z,22.90
2018-11-06T17:35:05.608Z,20.50
2018-11-06T17:37:34.016Z,23.20
2018-11-06T17:40:02.384Z,24.10
2018-11-06T17:42:31.398Z,25.07
2018-11-06T17:44:59.741Z,25.27
2018-11-06T17:47:28.172Z,22.40
2018-11-06T17:49:56.495Z,22.10
2018-11-06T17:52:24.829Z,26.33
2018-11-06T17:54:53.274Z,22.07
2018-11-06T17:57:21.820Z,21.97
2018-11-06T17:59:50.167Z,25.70
2018-11-06T18:02:18.611Z,24.13
2018-11-06T18:04:46.991Z,24.83
2018-11-06T18:07:15.356Z,23.83
2018-11-06T18:09:43.748Z,26.23
2018-11-06T18:12:12.095Z,22.47
2018-11-06T18:14:40.444Z,24.07
2018-11-06T18:17:08.853Z,25.90
2018-11-06T18:19:37.213Z,22.17
2018-11-06T18:22:06.140Z,26.23
2018-11-06T18:24:34.517Z,25.93
2018-11-06T18:27:02.900Z,29.17
2018-11-06T18:29:31.224Z,24.80
2018-11-06T18:31:59.592Z,28.90
2018-11-06T18:34:28.093Z,21.70
2018-11-06T18:36:56.492Z,22.37
2018-11-06T18:39:24.925Z,27.33
2018-11-06T18:41:53.276Z,28.10
2018-11-06T18:44:21.662Z,24.90
2018-11-06T18:46:50.007Z,27.60
2018-11-06T18:49:18.376Z,28.23
2018-11-06T18:51:46.716Z,23.73
2018-11-06T18:54:15.301Z,23.83
2018-11-06T18:56:43.710Z,30.90
2018-11-06T18:59:12.185Z,28.53
2018-11-06T19:01:40.559Z,27.87
2018-11-06T19:04:09.030Z,25.73
2018-11-06T19:06:37.370Z,30.97
2018-11-06T19:09:08.196Z,31.13
2018-11-06T19:11:36.614Z,30.23
2018-11-06T19:14:04.997Z,32.27
2018-11-06T19:16:33.339Z,34.90
2018-11-06T19:19:01.677Z,32.17
2018-11-06T19:21:29.975Z,35.57
2018-11-06T19:23:58.434Z,32.07
2018-11-06T19:26:26.772Z,30.23
2018-11-06T19:28:55.320Z,29.07
2018-11-06T19:33:58.306Z,28.27
2018-11-06T19:36:26.922Z,27.07
2018-11-06T19:38:55.315Z,27.73
2018-11-06T19:41:23.632Z,30.23
2018-11-06T19:43:52.012Z,29.40
2018-11-06T19:46:20.366Z,28.10
2018-11-06T19:48:48.772Z,27.03
2018-11-06T19:51:17.119Z,28.07
2018-11-06T19:53:45.604Z,25.07
2018-11-06T19:56:13.836Z,32.57
2018-11-06T19:58:42.284Z,28.23
2018-11-06T20:01:10.701Z,31.20
2018-11-06T20:03:39.146Z,34.97
2018-11-06T20:06:07.412Z,28.60
2018-11-06T20:08:35.726Z,30.77
2018-11-06T20:11:04.126Z,30.03
2018-11-06T20:13:32.585Z,31.20
2018-11-06T20:16:01.021Z,30.80
2018-11-06T20:18:29.445Z,31.40
2018-11-06T20:20:57.922Z,31.93
2018-11-06T20:23:26.304Z,31.93
2018-11-06T20:25:54.713Z,32.50
2018-11-06T20:28:23.169Z,34.77
2018-11-06T20:30:51.776Z,29.97
2018-11-06T20:33:20.354Z,36.50
2018-11-06T20:35:48.705Z,31.13
2018-11-06T20:38:17.244Z,32.13
2018-11-06T20:40:45.704Z,33.87
2018-11-06T20:43:14.096Z,33.57
2018-11-06T20:45:42.500Z,34.03
2018-11-06T20:48:10.894Z,32.27
2018-11-06T20:50:39.275Z,36.60
2018-11-06T20:53:07.675Z,35.63
2018-11-06T20:55:36.127Z,34.30
2018-11-06T20:58:04.402Z,33.23
2018-11-06T21:00:32.891Z,33.93
2018-11-06T21:03:02.223Z,36.83
2018-11-06T21:05:30.847Z,37.87
2018-11-06T21:08:05.563Z,35.00
2018-11-06T21:10:33.928Z,36.57
2018-11-06T21:13:02.318Z,36.00
2018-11-06T21:15:30.702Z,36.57
2018-11-06T21:17:59.192Z,40.53
2018-11-06T21:20:27.557Z,35.13
2018-11-06T21:22:55.896Z,37.67
2018-11-06T21:25:24.478Z,36.20
2018-11-06T21:27:52.700Z,34.37
2018-11-06T21:30:21.581Z,33.70
2018-11-06T21:32:51.164Z,39.70
2018-11-06T21:35:19.529Z,35.27
2018-11-06T21:37:47.873Z,35.90
2018-11-06T21:40:18.595Z,34.77
2018-11-06T21:42:47.449Z,37.93
2018-11-06T21:45:16.362Z,39.10
2018-11-06T21:47:45.550Z,40.43
2018-11-06T21:50:14.766Z,34.40
2018-11-06T21:52:43.153Z,35.03
2018-11-06T21:55:12.717Z,39.73
2018-11-06T21:57:41.159Z,39.07
2018-11-06T22:00:13.923Z,43.17
2018-11-06T22:02:42.343Z,38.13
2018-11-06T22:05:12.204Z,40.90
2018-11-06T22:07:41.195Z,37.73
2018-11-06T22:10:11.822Z,39.07
2018-11-06T22:12:41.157Z,39.37
2018-11-06T22:15:10.810Z,37.83
2018-11-06T22:17:39.624Z,40.67
2018-11-06T22:20:09.736Z,36.97
2018-11-06T22:22:38.076Z,43.30
2018-11-06T22:25:06.594Z,42.53
2018-11-06T22:27:35.212Z,39.03
2018-11-06T22:30:03.789Z,41.50
2018-11-06T22:32:32.184Z,42.67
2018-11-06T22:35:00.508Z,40.07
2018-11-06T22:37:29.177Z,38.97
2018-11-06T22:39:58.892Z,43.63
2018-11-06T22:42:27.954Z,44.07
2018-11-06T22:44:56.257Z,44.93
2018-11-06T22:47:24.603Z,42.87
2018-11-06T22:49:52.910Z,40.73
2018-11-06T22:52:21.336Z,41.57
2018-11-06T22:54:49.644Z,39.80
2018-11-06T22:57:18.031Z,37.90
2018-11-06T22:59:46.526Z,41.03
2018-11-06T23:02:14.931Z,35.57
2018-11-06T23:04:43.310Z,32.17
2018-11-06T23:07:16.079Z,30.93
2018-11-06T23:09:45.561Z,31.10
2018-11-06T23:12:13.919Z,32.70
2018-11-06T23:14:42.759Z,34.90
2018-11-06T23:17:11.111Z,32.93
2018-11-06T23:19:39.512Z,32.53
2018-11-06T23:22:07.854Z,30.60
2018-11-06T23:24:36.219Z,29.97
2018-11-06T23:27:04.571Z,35.67
2018-11-06T23:29:33.027Z,28.97
2018-11-06T23:32:01.918Z,30.20
2018-11-06T23:34:30.251Z,32.30
2018-11-06T23:36:58.812Z,30.50
2018-11-06T23:39:27.368Z,37.67
2018-11-06T23:41:55.775Z,33.73
2018-11-06T23:44:24.321Z,35.27
2018-11-06T23:46:52.894Z,36.73
2018-11-06T23:49:21.493Z,33.37
2018-11-06T23:51:49.855Z,33.60
2018-11-06T23:54:18.299Z,33.30
2018-11-06T23:56:46.631Z,34.37
2018-11-06T23:59:14.991Z,36.60
